sensor_id;sensor_type;location;lat;lon;timestamp;temperature;humidity
40952;DHT22;26682;51.660;19.338;2023-07-24T00:00:03;21.40;1.00
40952;DHT22;26682;51.660;19.338;2023-07-24T00:02:45;21.30;1.00
40952;DHT22;26682;51.660;19.338;2023-07-24T00:05:28;21.30;1.00
40952;DHT22;26682;51.660;19.338;2023-07-24T00:08:11;21.20;1.00
40952;DHT22;26682;51.660;19.338;2023-07-24T00:10:53;21.30;1.00
40952;DHT22;26682;51.660;19.338;2023-07-24T00:13:35;21.20;1.00
40952;DHT22;26682;51.660;19.338;2023-07-24T00:16:18;21.20;1.00
40952;DHT22;26682;51.660;19.338;2023-07-24T00:19:00;21.20;1.00
40952;DHT22;26682;51.660;19.338;2023-07-24T00:21:42;21.10;1.00
40952;DHT22;26682;51.660;19.338;2023-07-24T00:24:25;21.10;1.00
40952;DHT22;26682;51.660;19.338;2023-07-24T00:27:07;21.00;1.00
40952;DHT22;26682;51.660;19.338;2023-07-24T00:29:50;21.00;1.00
40952;DHT22;26682;51.660;19.338;2023-07-24T00:32:32;21.00;1.00
40952;DHT22;26682;51.660;19.338;2023-07-24T00:35:16;20.90;1.00
40952;DHT22;26682;51.660;19.338;2023-07-24T00:37:59;21.00;1.00
40952;DHT22;26682;51.660;19.338;2023-07-24T00:40:41;20.90;1.00
40952;DHT22;26682;51.660;19.338;2023-07-24T00:43:23;20.90;1.00
40952;DHT22;26682;51.660;19.338;2023-07-24T00:46:05;20.90;1.00
40952;DHT22;26682;51.660;19.338;2023-07-24T00:48:49;20.90;1.00
40952;DHT22;26682;51.660;19.338;2023-07-24T00:51:32;20.80;1.00
40952;DHT22;26682;51.660;19.338;2023-07-24T00:54:16;20.70;1.00
40952;DHT22;26682;51.660;19.338;2023-07-24T00:56:59;20.70;1.00
40952;DHT22;26682;51.660;19.338;2023-07-24T00:59:42;20.70;1.00
40952;DHT22;26682;51.660;19.338;2023-07-24T01:02:25;20.60;1.00
40952;DHT22;26682;51.660;19.338;2023-07-24T01:05:08;20.60;1.00
40952;DHT22;26682;51.660;19.338;2023-07-24T01:07:53;20.60;1.00
40952;DHT22;26682;51.660;19.338;2023-07-24T01:10:35;20.60;1.00
40952;DHT22;26682;51.660;19.338;2023-07-24T01:13:22;20.60;1.00
40952;DHT22;26682;51.660;19.338;2023-07-24T01:16:10;20.60;1.00
40952;DHT22;26682;51.660;19.338;2023-07-24T01:18:55;20.60;1.00
40952;DHT22;26682;51.660;19.338;2023-07-24T01:21:57;20.50;4.70
40952;DHT22;26682;51.660;19.338;2023-07-24T01:27:55;20.30;4.10
40952;DHT22;26682;51.660;19.338;2023-07-24T01:30:37;20.10;4.40
40952;DHT22;26682;51.660;19.338;2023-07-24T01:33:20;20.00;5.40
40952;DHT22;26682;51.660;19.338;2023-07-24T01:36:04;19.90;1.00
40952;DHT22;26682;51.660;19.338;2023-07-24T01:38:50;19.80;10.80
40952;DHT22;26682;51.660;19.338;2023-07-24T01:41:32;19.70;14.30
40952;DHT22;26682;51.660;19.338;2023-07-24T01:44:15;19.60;14.30
40952;DHT22;26682;51.660;19.338;2023-07-24T01:46:57;19.70;23.90
40952;DHT22;26682;51.660;19.338;2023-07-24T01:49:40;19.70;31.50
40952;DHT22;26682;51.660;19.338;2023-07-24T01:52:22;19.70;36.10
40952;DHT22;26682;51.660;19.338;2023-07-24T01:55:05;19.70;54.40
40952;DHT22;26682;51.660;19.338;2023-07-24T01:57:47;19.60;60.30
40952;DHT22;26682;51.660;19.338;2023-07-24T02:00:30;19.60;68.20
40952;DHT22;26682;51.660;19.338;2023-07-24T02:03:12;19.50;79.50
40952;DHT22;26682;51.660;19.338;2023-07-24T02:05:54;19.60;85.70
40952;DHT22;26682;51.660;19.338;2023-07-24T02:08:36;19.50;83.90
40952;DHT22;26682;51.660;19.338;2023-07-24T02:11:19;19.40;88.40
40952;DHT22;26682;51.660;19.338;2023-07-24T02:14:02;19.40;86.30
40952;DHT22;26682;51.660;19.338;2023-07-24T02:16:44;19.30;91.60
40952;DHT22;26682;51.660;19.338;2023-07-24T02:19:27;19.20;95.30
40952;DHT22;26682;51.660;19.338;2023-07-24T02:22:10;19.20;96.70
40952;DHT22;26682;51.660;19.338;2023-07-24T02:24:52;19.20;99.90
40952;DHT22;26682;51.660;19.338;2023-07-24T02:27:35;19.20;99.90
40952;DHT22;26682;51.660;19.338;2023-07-24T02:30:17;19.20;99.90
40952;DHT22;26682;51.660;19.338;2023-07-24T02:32:59;19.30;99.90
40952;DHT22;26682;51.660;19.338;2023-07-24T02:35:42;19.30;99.90
40952;DHT22;26682;51.660;19.338;2023-07-24T02:38:25;19.40;99.90
40952;DHT22;26682;51.660;19.338;2023-07-24T02:41:08;19.30;99.90
40952;DHT22;26682;51.660;19.338;2023-07-24T02:43:51;19.30;99.90
40952;DHT22;26682;51.660;19.338;2023-07-24T02:46:33;19.20;99.90
40952;DHT22;26682;51.660;19.338;2023-07-24T02:49:16;19.10;99.90
40952;DHT22;26682;51.660;19.338;2023-07-24T02:51:59;19.00;99.90
40952;DHT22;26682;51.660;19.338;2023-07-24T02:54:41;18.90;99.90
40952;DHT22;26682;51.660;19.338;2023-07-24T02:57:23;18.80;99.90
40952;DHT22;26682;51.660;19.338;2023-07-24T03:00:07;18.70;99.90
40952;DHT22;26682;51.660;19.338;2023-07-24T03:02:50;18.60;99.90
40952;DHT22;26682;51.660;19.338;2023-07-24T03:05:36;18.50;99.90
40952;DHT22;26682;51.660;19.338;2023-07-24T03:08:19;18.50;99.90
40952;DHT22;26682;51.660;19.338;2023-07-24T03:11:04;18.50;99.90
40952;DHT22;26682;51.660;19.338;2023-07-24T03:13:47;18.50;99.90
40952;DHT22;26682;51.660;19.338;2023-07-24T03:16:30;18.50;99.90
40952;DHT22;26682;51.660;19.338;2023-07-24T03:19:12;18.50;99.90
40952;DHT22;26682;51.660;19.338;2023-07-24T03:21:55;18.50;99.90
40952;DHT22;26682;51.660;19.338;2023-07-24T03:24:37;18.60;99.90
40952;DHT22;26682;51.660;19.338;2023-07-24T03:27:20;18.60;99.90
40952;DHT22;26682;51.660;19.338;2023-07-24T03:30:02;18.60;99.90
40952;DHT22;26682;51.660;19.338;2023-07-24T03:32:45;18.70;99.90
40952;DHT22;26682;51.660;19.338;2023-07-24T03:35:27;18.70;99.90
40952;DHT22;26682;51.660;19.338;2023-07-24T03:38:10;18.70;99.90
40952;DHT22;26682;51.660;19.338;2023-07-24T03:40:52;18.80;99.90
40952;DHT22;26682;51.660;19.338;2023-07-24T03:43:35;18.80;99.90
40952;DHT22;26682;51.660;19.338;2023-07-24T03:46:17;18.80;99.90
40952;DHT22;26682;51.660;19.338;2023-07-24T03:48:59;18.80;99.90
40952;DHT22;26682;51.660;19.338;2023-07-24T03:51:41;18.80;99.90
40952;DHT22;26682;51.660;19.338;2023-07-24T03:54:24;18.80;99.90
40952;DHT22;26682;51.660;19.338;2023-07-24T03:57:06;18.70;99.90
40952;DHT22;26682;51.660;19.338;2023-07-24T03:59:49;18.70;99.90
40952;DHT22;26682;51.660;19.338;2023-07-24T04:02:31;18.70;99.90
40952;DHT22;26682;51.660;19.338;2023-07-24T04:05:13;18.70;99.90
40952;DHT22;26682;51.660;19.338;2023-07-24T04:07:56;18.60;99.90
40952;DHT22;26682;51.660;19.338;2023-07-24T04:10:38;18.70;99.90
40952;DHT22;26682;51.660;19.338;2023-07-24T04:13:20;18.70;99.90
40952;DHT22;26682;51.660;19.338;2023-07-24T04:16:03;18.80;99.90
40952;DHT22;26682;51.660;19.338;2023-07-24T04:18:46;18.90;99.90
40952;DHT22;26682;51.660;19.338;2023-07-24T04:21:28;19.00;99.90
40952;DHT22;26682;51.660;19.338;2023-07-24T04:24:10;19.20;99.90
40952;DHT22;26682;51.660;19.338;2023-07-24T04:26:53;19.30;99.90
40952;DHT22;26682;51.660;19.338;2023-07-24T04:29:35;19.50;99.90
40952;DHT22;26682;51.660;19.338;2023-07-24T04:32:17;19.60;99.90
40952;DHT22;26682;51.660;19.338;2023-07-24T04:35:00;19.60;99.90
40952;DHT22;26682;51.660;19.338;2023-07-24T04:37:42;19.70;99.90
40952;DHT22;26682;51.660;19.338;2023-07-24T04:40:25;19.70;99.90
40952;DHT22;26682;51.660;19.338;2023-07-24T04:43:07;19.70;99.90
40952;DHT22;26682;51.660;19.338;2023-07-24T04:45:50;19.70;99.90
40952;DHT22;26682;51.660;19.338;2023-07-24T04:48:32;19.70;99.90
40952;DHT22;26682;51.660;19.338;2023-07-24T04:51:14;19.80;99.90
40952;DHT22;26682;51.660;19.338;2023-07-24T04:53:57;19.80;99.90
40952;DHT22;26682;51.660;19.338;2023-07-24T04:56:39;19.90;99.90
40952;DHT22;26682;51.660;19.338;2023-07-24T04:59:22;19.90;99.90
40952;DHT22;26682;51.660;19.338;2023-07-24T05:02:05;19.90;99.90
40952;DHT22;26682;51.660;19.338;2023-07-24T05:04:48;20.00;99.90
40952;DHT22;26682;51.660;19.338;2023-07-24T05:07:30;20.10;99.90
40952;DHT22;26682;51.660;19.338;2023-07-24T05:10:13;20.10;99.90
40952;DHT22;26682;51.660;19.338;2023-07-24T05:12:55;20.20;99.90
40952;DHT22;26682;51.660;19.338;2023-07-24T05:15:39;20.30;99.90
40952;DHT22;26682;51.660;19.338;2023-07-24T05:18:21;20.60;99.90
40952;DHT22;26682;51.660;19.338;2023-07-24T05:21:03;20.90;99.90
40952;DHT22;26682;51.660;19.338;2023-07-24T05:23:45;21.00;99.90
40952;DHT22;26682;51.660;19.338;2023-07-24T05:26:28;21.10;99.90
40952;DHT22;26682;51.660;19.338;2023-07-24T05:29:10;21.10;99.90
40952;DHT22;26682;51.660;19.338;2023-07-24T05:31:53;21.20;99.90
40952;DHT22;26682;51.660;19.338;2023-07-24T05:34:35;21.20;99.90
40952;DHT22;26682;51.660;19.338;2023-07-24T05:37:18;21.30;99.90
40952;DHT22;26682;51.660;19.338;2023-07-24T05:40:00;21.50;99.90
40952;DHT22;26682;51.660;19.338;2023-07-24T05:42:43;21.80;99.90
40952;DHT22;26682;51.660;19.338;2023-07-24T05:45:27;22.40;99.90
40952;DHT22;26682;51.660;19.338;2023-07-24T05:48:09;23.10;99.90
40952;DHT22;26682;51.660;19.338;2023-07-24T05:50:52;23.60;99.90
40952;DHT22;26682;51.660;19.338;2023-07-24T05:53:34;24.30;99.90
40952;DHT22;26682;51.660;19.338;2023-07-24T05:56:16;24.50;99.90
40952;DHT22;26682;51.660;19.338;2023-07-24T05:58:59;24.50;99.90
40952;DHT22;26682;51.660;19.338;2023-07-24T06:01:41;24.30;99.90
40952;DHT22;26682;51.660;19.338;2023-07-24T06:04:24;24.50;99.90
40952;DHT22;26682;51.660;19.338;2023-07-24T06:07:06;24.90;99.90
40952;DHT22;26682;51.660;19.338;2023-07-24T06:09:49;25.00;99.90
40952;DHT22;26682;51.660;19.338;2023-07-24T06:12:32;24.80;99.90
40952;DHT22;26682;51.660;19.338;2023-07-24T06:15:14;24.80;99.90
40952;DHT22;26682;51.660;19.338;2023-07-24T06:17:57;25.10;99.90
40952;DHT22;26682;51.660;19.338;2023-07-24T06:20:39;25.30;99.90
40952;DHT22;26682;51.660;19.338;2023-07-24T06:23:22;25.60;99.90
40952;DHT22;26682;51.660;19.338;2023-07-24T06:26:05;25.80;99.90
40952;DHT22;26682;51.660;19.338;2023-07-24T06:28:47;25.70;99.90
40952;DHT22;26682;51.660;19.338;2023-07-24T06:31:30;25.60;99.50
40952;DHT22;26682;51.660;19.338;2023-07-24T06:34:12;25.40;96.20
40952;DHT22;26682;51.660;19.338;2023-07-24T06:36:54;25.30;90.20
40952;DHT22;26682;51.660;19.338;2023-07-24T06:39:50;25.40;91.50
40952;DHT22;26682;51.660;19.338;2023-07-24T06:42:32;25.40;95.60
40952;DHT22;26682;51.660;19.338;2023-07-24T06:45:15;25.40;95.80
40952;DHT22;26682;51.660;19.338;2023-07-24T06:47:58;25.50;88.00
40952;DHT22;26682;51.660;19.338;2023-07-24T06:50:40;25.50;90.80
40952;DHT22;26682;51.660;19.338;2023-07-24T06:53:23;25.60;84.20
40952;DHT22;26682;51.660;19.338;2023-07-24T06:56:05;25.80;73.00
40952;DHT22;26682;51.660;19.338;2023-07-24T06:58:48;25.80;78.60
40952;DHT22;26682;51.660;19.338;2023-07-24T07:01:30;25.80;50.80
40952;DHT22;26682;51.660;19.338;2023-07-24T07:04:13;25.60;51.80
40952;DHT22;26682;51.660;19.338;2023-07-24T07:06:55;25.60;51.60
40952;DHT22;26682;51.660;19.338;2023-07-24T07:09:38;25.60;54.50
40952;DHT22;26682;51.660;19.338;2023-07-24T07:12:20;25.50;49.30
40952;DHT22;26682;51.660;19.338;2023-07-24T07:15:04;25.50;49.40
40952;DHT22;26682;51.660;19.338;2023-07-24T07:17:46;25.60;55.50
40952;DHT22;26682;51.660;19.338;2023-07-24T07:20:29;25.50;46.40
40952;DHT22;26682;51.660;19.338;2023-07-24T07:23:11;25.60;54.60
40952;DHT22;26682;51.660;19.338;2023-07-24T07:25:54;25.70;42.00
40952;DHT22;26682;51.660;19.338;2023-07-24T07:28:36;25.80;45.00
40952;DHT22;26682;51.660;19.338;2023-07-24T07:31:20;25.80;44.60
40952;DHT22;26682;51.660;19.338;2023-07-24T07:34:02;25.70;39.20
40952;DHT22;26682;51.660;19.338;2023-07-24T07:36:45;25.60;40.70
40952;DHT22;26682;51.660;19.338;2023-07-24T07:39:27;25.80;43.60
40952;DHT22;26682;51.660;19.338;2023-07-24T07:42:10;26.00;45.80
40952;DHT22;26682;51.660;19.338;2023-07-24T07:44:59;26.10;53.10
40952;DHT22;26682;51.660;19.338;2023-07-24T07:47:42;26.10;55.70
40952;DHT22;26682;51.660;19.338;2023-07-24T07:50:25;26.00;51.50
40952;DHT22;26682;51.660;19.338;2023-07-24T07:53:07;26.10;55.40
40952;DHT22;26682;51.660;19.338;2023-07-24T07:55:57;26.00;53.00
40952;DHT22;26682;51.660;19.338;2023-07-24T07:58:40;25.90;53.20
40952;DHT22;26682;51.660;19.338;2023-07-24T08:01:22;25.80;36.20
40952;DHT22;26682;51.660;19.338;2023-07-24T08:04:05;25.70;35.10
40952;DHT22;26682;51.660;19.338;2023-07-24T08:06:47;25.70;23.30
40952;DHT22;26682;51.660;19.338;2023-07-24T08:09:29;25.70;35.50
40952;DHT22;26682;51.660;19.338;2023-07-24T08:12:12;25.70;37.70
40952;DHT22;26682;51.660;19.338;2023-07-24T08:14:55;25.70;37.30
40952;DHT22;26682;51.660;19.338;2023-07-24T08:17:38;25.80;41.20
40952;DHT22;26682;51.660;19.338;2023-07-24T08:20:21;25.80;31.00
40952;DHT22;26682;51.660;19.338;2023-07-24T08:23:03;25.80;41.40
40952;DHT22;26682;51.660;19.338;2023-07-24T08:25:53;25.80;37.00
40952;DHT22;26682;51.660;19.338;2023-07-24T08:28:36;25.80;33.10
40952;DHT22;26682;51.660;19.338;2023-07-24T08:31:19;25.80;23.20
40952;DHT22;26682;51.660;19.338;2023-07-24T08:34:01;25.90;18.20
40952;DHT22;26682;51.660;19.338;2023-07-24T08:36:44;26.00;17.20
40952;DHT22;26682;51.660;19.338;2023-07-24T08:39:26;26.10;18.50
40952;DHT22;26682;51.660;19.338;2023-07-24T08:42:10;26.00;13.40
40952;DHT22;26682;51.660;19.338;2023-07-24T08:44:53;26.00;9.50
40952;DHT22;26682;51.660;19.338;2023-07-24T08:47:36;25.90;10.50
40952;DHT22;26682;51.660;19.338;2023-07-24T08:50:20;25.90;13.00
40952;DHT22;26682;51.660;19.338;2023-07-24T08:53:04;26.00;10.30
40952;DHT22;26682;51.660;19.338;2023-07-24T08:55:48;26.10;10.30
40952;DHT22;26682;51.660;19.338;2023-07-24T08:58:34;26.10;1.00
40952;DHT22;26682;51.660;19.338;2023-07-24T09:01:17;26.20;1.00
40952;DHT22;26682;51.660;19.338;2023-07-24T09:03:59;26.30;1.00
40952;DHT22;26682;51.660;19.338;2023-07-24T09:06:42;26.50;1.00
40952;DHT22;26682;51.660;19.338;2023-07-24T09:09:29;26.70;1.00
40952;DHT22;26682;51.660;19.338;2023-07-24T09:12:15;26.80;1.00
40952;DHT22;26682;51.660;19.338;2023-07-24T09:15:05;27.00;1.00
40952;DHT22;26682;51.660;19.338;2023-07-24T09:17:53;27.20;1.00
40952;DHT22;26682;51.660;19.338;2023-07-24T09:20:40;27.50;1.00
40952;DHT22;26682;51.660;19.338;2023-07-24T09:23:28;27.60;1.00
40952;DHT22;26682;51.660;19.338;2023-07-24T09:26:10;27.90;1.00
40952;DHT22;26682;51.660;19.338;2023-07-24T09:28:53;28.10;1.00
40952;DHT22;26682;51.660;19.338;2023-07-24T09:31:36;28.30;1.00
40952;DHT22;26682;51.660;19.338;2023-07-24T09:34:19;28.30;1.00
40952;DHT22;26682;51.660;19.338;2023-07-24T09:37:01;28.40;1.00
40952;DHT22;26682;51.660;19.338;2023-07-24T09:39:46;28.40;1.00
40952;DHT22;26682;51.660;19.338;2023-07-24T09:42:33;28.40;1.00
40952;DHT22;26682;51.660;19.338;2023-07-24T09:45:15;28.40;1.00
40952;DHT22;26682;51.660;19.338;2023-07-24T09:47:58;28.50;1.00
40952;DHT22;26682;51.660;19.338;2023-07-24T09:50:56;28.60;1.00
40952;DHT22;26682;51.660;19.338;2023-07-24T09:54:33;28.70;1.00
40952;DHT22;26682;51.660;19.338;2023-07-24T09:57:09;28.80;1.00
40952;DHT22;26682;51.660;19.338;2023-07-24T10:00:02;28.60;1.00
40952;DHT22;26682;51.660;19.338;2023-07-24T10:02:46;28.40;1.00
40952;DHT22;26682;51.660;19.338;2023-07-24T10:05:30;28.50;1.00
40952;DHT22;26682;51.660;19.338;2023-07-24T10:08:16;28.70;1.00
40952;DHT22;26682;51.660;19.338;2023-07-24T10:10:59;28.80;1.00
40952;DHT22;26682;51.660;19.338;2023-07-24T10:13:42;28.80;1.00
40952;DHT22;26682;51.660;19.338;2023-07-24T10:16:25;28.80;1.00
40952;DHT22;26682;51.660;19.338;2023-07-24T10:19:14;29.00;1.00
40952;DHT22;26682;51.660;19.338;2023-07-24T10:21:58;28.80;1.00
40952;DHT22;26682;51.660;19.338;2023-07-24T10:24:41;28.60;1.00
40952;DHT22;26682;51.660;19.338;2023-07-24T10:27:25;28.50;1.00
40952;DHT22;26682;51.660;19.338;2023-07-24T10:30:07;28.30;1.00
40952;DHT22;26682;51.660;19.338;2023-07-24T10:33:13;28.20;1.00
40952;DHT22;26682;51.660;19.338;2023-07-24T10:36:07;28.10;1.00
40952;DHT22;26682;51.660;19.338;2023-07-24T10:38:54;28.10;1.00
40952;DHT22;26682;51.660;19.338;2023-07-24T10:41:37;28.10;1.00
40952;DHT22;26682;51.660;19.338;2023-07-24T10:44:31;28.00;1.00
40952;DHT22;26682;51.660;19.338;2023-07-24T10:47:13;28.10;1.00
40952;DHT22;26682;51.660;19.338;2023-07-24T10:49:57;28.40;1.00
40952;DHT22;26682;51.660;19.338;2023-07-24T10:52:40;28.50;1.00
40952;DHT22;26682;51.660;19.338;2023-07-24T10:55:27;28.40;1.00
40952;DHT22;26682;51.660;19.338;2023-07-24T10:58:10;28.20;1.00
40952;DHT22;26682;51.660;19.338;2023-07-24T11:00:53;28.30;1.00
40952;DHT22;26682;51.660;19.338;2023-07-24T11:03:40;28.40;1.00
40952;DHT22;26682;51.660;19.338;2023-07-24T11:06:23;28.50;1.00
40952;DHT22;26682;51.660;19.338;2023-07-24T11:09:06;28.80;1.00
40952;DHT22;26682;51.660;19.338;2023-07-24T11:11:51;29.20;1.00
40952;DHT22;26682;51.660;19.338;2023-07-24T11:14:33;29.40;1.00
40952;DHT22;26682;51.660;19.338;2023-07-24T11:17:17;29.50;1.00
40952;DHT22;26682;51.660;19.338;2023-07-24T11:20:14;29.50;1.00
40952;DHT22;26682;51.660;19.338;2023-07-24T11:22:58;29.50;1.00
40952;DHT22;26682;51.660;19.338;2023-07-24T11:25:41;29.80;1.00
40952;DHT22;26682;51.660;19.338;2023-07-24T11:28:26;29.80;1.00
40952;DHT22;26682;51.660;19.338;2023-07-24T11:31:11;29.90;1.00
40952;DHT22;26682;51.660;19.338;2023-07-24T11:33:54;30.00;1.00
40952;DHT22;26682;51.660;19.338;2023-07-24T11:36:36;30.20;1.00
40952;DHT22;26682;51.660;19.338;2023-07-24T11:39:25;30.10;1.00
40952;DHT22;26682;51.660;19.338;2023-07-24T11:42:08;29.90;1.00
40952;DHT22;26682;51.660;19.338;2023-07-24T11:44:50;29.90;1.00
40952;DHT22;26682;51.660;19.338;2023-07-24T11:47:50;30.00;1.00
40952;DHT22;26682;51.660;19.338;2023-07-24T11:50:44;29.90;1.00
40952;DHT22;26682;51.660;19.338;2023-07-24T11:53:28;29.80;1.00
40952;DHT22;26682;51.660;19.338;2023-07-24T11:56:15;29.70;1.00
40952;DHT22;26682;51.660;19.338;2023-07-24T11:58:58;29.80;1.00
40952;DHT22;26682;51.660;19.338;2023-07-24T12:01:51;30.00;1.00
40952;DHT22;26682;51.660;19.338;2023-07-24T12:04:33;30.10;1.00
40952;DHT22;26682;51.660;19.338;2023-07-24T12:07:16;30.30;1.00
40952;DHT22;26682;51.660;19.338;2023-07-24T12:10:00;30.40;1.00
40952;DHT22;26682;51.660;19.338;2023-07-24T12:12:44;30.60;1.00
40952;DHT22;26682;51.660;19.338;2023-07-24T12:15:28;30.70;1.00
40952;DHT22;26682;51.660;19.338;2023-07-24T12:18:11;30.70;1.00
40952;DHT22;26682;51.660;19.338;2023-07-24T12:20:54;30.50;1.00
40952;DHT22;26682;51.660;19.338;2023-07-24T12:23:37;30.20;1.00
40952;DHT22;26682;51.660;19.338;2023-07-24T12:26:19;30.20;1.00
40952;DHT22;26682;51.660;19.338;2023-07-24T12:29:02;30.00;1.00
40952;DHT22;26682;51.660;19.338;2023-07-24T12:31:45;29.90;1.00
40952;DHT22;26682;51.660;19.338;2023-07-24T12:34:27;29.90;1.00
40952;DHT22;26682;51.660;19.338;2023-07-24T12:37:09;29.80;1.00
40952;DHT22;26682;51.660;19.338;2023-07-24T12:39:52;29.70;1.00
40952;DHT22;26682;51.660;19.338;2023-07-24T12:42:35;29.70;1.00
40952;DHT22;26682;51.660;19.338;2023-07-24T12:45:18;29.70;1.00
40952;DHT22;26682;51.660;19.338;2023-07-24T12:48:01;29.70;1.00
40952;DHT22;26682;51.660;19.338;2023-07-24T12:50:44;29.70;1.00
40952;DHT22;26682;51.660;19.338;2023-07-24T12:53:27;29.70;1.00
40952;DHT22;26682;51.660;19.338;2023-07-24T12:56:16;29.60;1.00
40952;DHT22;26682;51.660;19.338;2023-07-24T12:59:01;29.70;1.00
40952;DHT22;26682;51.660;19.338;2023-07-24T13:01:44;29.60;1.00
40952;DHT22;26682;51.660;19.338;2023-07-24T13:04:27;29.50;1.00
40952;DHT22;26682;51.660;19.338;2023-07-24T13:07:10;29.50;1.00
40952;DHT22;26682;51.660;19.338;2023-07-24T13:09:52;29.60;1.00
40952;DHT22;26682;51.660;19.338;2023-07-24T13:12:35;29.50;1.00
40952;DHT22;26682;51.660;19.338;2023-07-24T13:15:18;29.50;1.00
40952;DHT22;26682;51.660;19.338;2023-07-24T13:18:00;29.40;1.00
40952;DHT22;26682;51.660;19.338;2023-07-24T13:20:59;29.50;1.00
40952;DHT22;26682;51.660;19.338;2023-07-24T13:23:42;29.40;1.00
40952;DHT22;26682;51.660;19.338;2023-07-24T13:26:25;29.40;1.00
40952;DHT22;26682;51.660;19.338;2023-07-24T13:29:07;29.40;1.00
40952;DHT22;26682;51.660;19.338;2023-07-24T13:31:50;29.50;1.00
40952;DHT22;26682;51.660;19.338;2023-07-24T13:34:34;29.70;1.00
40952;DHT22;26682;51.660;19.338;2023-07-24T13:37:17;29.80;1.00
40952;DHT22;26682;51.660;19.338;2023-07-24T13:39:59;30.00;1.00
40952;DHT22;26682;51.660;19.338;2023-07-24T13:42:42;30.20;1.00
40952;DHT22;26682;51.660;19.338;2023-07-24T13:45:24;30.10;1.00
40952;DHT22;26682;51.660;19.338;2023-07-24T13:48:07;30.10;1.00
40952;DHT22;26682;51.660;19.338;2023-07-24T13:50:50;29.90;1.00
40952;DHT22;26682;51.660;19.338;2023-07-24T13:53:35;29.90;1.00
40952;DHT22;26682;51.660;19.338;2023-07-24T13:56:18;30.00;1.00
40952;DHT22;26682;51.660;19.338;2023-07-24T13:59:01;30.20;1.00
40952;DHT22;26682;51.660;19.338;2023-07-24T14:01:44;30.20;1.00
40952;DHT22;26682;51.660;19.338;2023-07-24T14:04:27;30.20;1.00
40952;DHT22;26682;51.660;19.338;2023-07-24T14:07:10;30.20;1.00
40952;DHT22;26682;51.660;19.338;2023-07-24T14:09:55;30.10;1.00
40952;DHT22;26682;51.660;19.338;2023-07-24T14:12:38;29.90;1.00
40952;DHT22;26682;51.660;19.338;2023-07-24T14:15:21;29.80;1.00
40952;DHT22;26682;51.660;19.338;2023-07-24T14:18:03;29.90;1.00
40952;DHT22;26682;51.660;19.338;2023-07-24T14:20:46;29.90;1.00
40952;DHT22;26682;51.660;19.338;2023-07-24T14:23:29;29.90;1.00
40952;DHT22;26682;51.660;19.338;2023-07-24T14:26:12;29.90;1.00
40952;DHT22;26682;51.660;19.338;2023-07-24T14:28:55;29.90;1.00
40952;DHT22;26682;51.660;19.338;2023-07-24T14:31:39;29.90;1.00
40952;DHT22;26682;51.660;19.338;2023-07-24T14:34:21;29.80;1.00
40952;DHT22;26682;51.660;19.338;2023-07-24T14:37:04;29.80;1.00
40952;DHT22;26682;51.660;19.338;2023-07-24T14:39:47;29.80;1.00
40952;DHT22;26682;51.660;19.338;2023-07-24T14:42:29;29.80;1.00
40952;DHT22;26682;51.660;19.338;2023-07-24T14:45:12;29.90;1.00
40952;DHT22;26682;51.660;19.338;2023-07-24T14:47:54;29.80;1.00
40952;DHT22;26682;51.660;19.338;2023-07-24T14:50:36;29.70;1.00
40952;DHT22;26682;51.660;19.338;2023-07-24T14:53:19;29.60;1.00
40952;DHT22;26682;51.660;19.338;2023-07-24T14:56:01;29.40;1.00
40952;DHT22;26682;51.660;19.338;2023-07-24T14:58:44;29.40;1.00
40952;DHT22;26682;51.660;19.338;2023-07-24T15:01:27;29.30;1.00
40952;DHT22;26682;51.660;19.338;2023-07-24T15:04:13;29.30;1.00
40952;DHT22;26682;51.660;19.338;2023-07-24T15:06:56;29.40;1.00
40952;DHT22;26682;51.660;19.338;2023-07-24T15:09:38;29.30;1.00
40952;DHT22;26682;51.660;19.338;2023-07-24T15:12:22;29.30;1.00
40952;DHT22;26682;51.660;19.338;2023-07-24T15:15:05;29.20;1.00
40952;DHT22;26682;51.660;19.338;2023-07-24T15:17:48;29.20;1.00
40952;DHT22;26682;51.660;19.338;2023-07-24T15:20:32;29.20;1.00
40952;DHT22;26682;51.660;19.338;2023-07-24T15:23:14;29.20;1.00
40952;DHT22;26682;51.660;19.338;2023-07-24T15:25:57;29.20;1.00
40952;DHT22;26682;51.660;19.338;2023-07-24T15:28:40;29.20;1.00
40952;DHT22;26682;51.660;19.338;2023-07-24T15:31:23;29.20;1.00
40952;DHT22;26682;51.660;19.338;2023-07-24T15:34:06;29.20;1.00
40952;DHT22;26682;51.660;19.338;2023-07-24T15:36:48;29.10;1.00
40952;DHT22;26682;51.660;19.338;2023-07-24T15:39:30;29.10;1.00
40952;DHT22;26682;51.660;19.338;2023-07-24T15:42:13;29.10;1.00
40952;DHT22;26682;51.660;19.338;2023-07-24T15:44:55;29.10;1.00
40952;DHT22;26682;51.660;19.338;2023-07-24T15:47:37;29.10;1.00
40952;DHT22;26682;51.660;19.338;2023-07-24T15:50:20;29.00;1.00
40952;DHT22;26682;51.660;19.338;2023-07-24T15:53:02;28.90;1.00
40952;DHT22;26682;51.660;19.338;2023-07-24T15:55:44;29.00;1.00
40952;DHT22;26682;51.660;19.338;2023-07-24T15:58:27;29.00;1.00
40952;DHT22;26682;51.660;19.338;2023-07-24T16:01:09;29.00;1.00
40952;DHT22;26682;51.660;19.338;2023-07-24T16:03:52;28.90;1.00
40952;DHT22;26682;51.660;19.338;2023-07-24T16:06:34;29.10;1.00
40952;DHT22;26682;51.660;19.338;2023-07-24T16:09:17;29.20;1.00
40952;DHT22;26682;51.660;19.338;2023-07-24T16:11:59;29.30;1.00
40952;DHT22;26682;51.660;19.338;2023-07-24T16:14:41;29.20;1.00
40952;DHT22;26682;51.660;19.338;2023-07-24T16:17:24;29.20;1.00
40952;DHT22;26682;51.660;19.338;2023-07-24T16:20:07;29.10;1.00
40952;DHT22;26682;51.660;19.338;2023-07-24T16:22:50;29.00;1.00
40952;DHT22;26682;51.660;19.338;2023-07-24T16:25:33;29.00;1.00
40952;DHT22;26682;51.660;19.338;2023-07-24T16:28:15;28.90;1.00
40952;DHT22;26682;51.660;19.338;2023-07-24T16:30:58;28.80;1.00
40952;DHT22;26682;51.660;19.338;2023-07-24T16:33:41;28.70;1.00
40952;DHT22;26682;51.660;19.338;2023-07-24T16:36:23;28.60;1.00
40952;DHT22;26682;51.660;19.338;2023-07-24T16:39:06;28.50;1.00
40952;DHT22;26682;51.660;19.338;2023-07-24T16:41:49;28.40;1.00
40952;DHT22;26682;51.660;19.338;2023-07-24T16:44:32;28.40;1.00
40952;DHT22;26682;51.660;19.338;2023-07-24T16:47:19;28.30;1.00
40952;DHT22;26682;51.660;19.338;2023-07-24T16:50:02;28.20;1.00
40952;DHT22;26682;51.660;19.338;2023-07-24T16:52:45;28.20;1.00
40952;DHT22;26682;51.660;19.338;2023-07-24T16:55:27;28.10;1.00
40952;DHT22;26682;51.660;19.338;2023-07-24T16:58:11;28.10;1.00
40952;DHT22;26682;51.660;19.338;2023-07-24T17:00:54;28.00;1.00
40952;DHT22;26682;51.660;19.338;2023-07-24T17:03:37;27.90;1.00
40952;DHT22;26682;51.660;19.338;2023-07-24T17:06:19;27.60;1.00
40952;DHT22;26682;51.660;19.338;2023-07-24T17:09:02;27.40;1.00